Time;durP1;ratioP1;P1;durP2;ratioP2;P2;SDS_P1;SDS_P2;PMS_P1;PMS_P2;Temp;Humidity;BMP_temperature;BMP_pressure;BME280_temperature;BME280_humidity;BME280_pressure;Samples;Min_cycle;Max_cycle;Signal;HPM_P1;HPM_P2
2022/06/26 00:01:18;;;;;;;3.63;1.75;;;;;;;;;;21004273;28;20090;-68
2022/06/26 00:11:20;;;;;;;3.47;1.73;;;;;;;;;;21003730;28;20132;-65
2022/06/26 00:21:24;;;;;;;4.07;1.60;;;;;;;;;;21000721;28;20041;-68
2022/06/26 00:31:25;;;;;;;3.95;1.65;;;;;;;;;;21001237;28;20052;-67
2022/06/26 00:41:27;;;;;;;5.18;1.65;;;;;;;;;;21000953;28;20041;-66
2022/06/26 00:51:30;;;;;;;;;;;;;;;;;;21001821;28;20059;-68
2022/06/26 01:01:34;;;;;;;3.97;1.50;;;;;;;;;;20999750;28;19966;-60
2022/06/26 01:11:36;;;;;;;5.38;2.20;;;;;;;;;;20998806;28;20062;-67
2022/06/26 01:21:38;;;;;;;4.20;1.90;;;;;;;;;;20998049;28;20055;-68
2022/06/26 01:31:42;;;;;;;6.93;1.83;;;;;;;;;;20995767;28;20063;-70
2022/06/26 01:41:55;;;;;;;4.70;1.55;;;;;;;;;;20996938;28;20191;-66
2022/06/26 01:51:59;;;;;;;3.90;1.95;;;;;;;;;;20997395;28;20080;-61
2022/06/26 02:02:07;;;;;;;4.97;1.98;;;;;;;;;;20996254;28;20047;-60
2022/06/26 02:22:48;;;;;;;5.18;2.03;;;;;;;;;;20994365;28;20040;-60
2022/06/26 02:33:09;;;;;;;4.05;1.95;;;;;;;;;;20994577;28;20106;-65
2022/06/26 02:43:31;;;;;;;5.63;1.95;;;;;;;;;;21000426;28;20102;-59
2022/06/26 02:53:52;;;;;;;4.00;1.90;;;;;;;;;;21009475;28;20049;-63
2022/06/26 03:04:02;;;;;;;4.68;1.67;;;;;;;;;;21009159;28;20098;-60
2022/06/26 03:14:23;;;;;;;3.83;1.88;;;;;;;;;;21008457;28;20049;-62
2022/06/26 03:24:29;;;;;;;3.22;1.88;;;;;;;;;;21007344;28;20459;-68
2022/06/26 03:34:36;;;;;;;6.40;2.10;;;;;;;;;;21007046;28;20393;-63
2022/06/26 03:44:39;;;;;;;6.47;1.95;;;;;;;;;;21005636;28;20049;-59
2022/06/26 03:54:45;;;;;;;5.47;1.90;;;;;;;;;;21006051;28;20056;-63
2022/06/26 04:04:54;;;;;;;3.97;1.92;;;;;;;;;;21004554;28;20041;-68
2022/06/26 04:14:56;;;;;;;5.53;2.17;;;;;;;;;;20986083;28;20052;-68
2022/06/26 04:24:59;;;;;;;5.13;1.97;;;;;;;;;;21003269;28;20060;-62
2022/06/26 04:35:02;;;;;;;8.05;2.45;;;;;;;;;;21003285;28;20055;-66
2022/06/26 04:45:13;;;;;;;4.03;1.80;;;;;;;;;;21000997;28;20189;-68
2022/06/26 04:55:16;;;;;;;6.23;2.13;;;;;;;;;;21000577;28;20060;-64
2022/06/26 05:05:18;;;;;;;4.70;1.70;;;;;;;;;;20998224;28;20457;-62
2022/06/26 05:15:21;;;;;;;6.17;2.37;;;;;;;;;;20999609;28;20044;-63
2022/06/26 05:25:23;;;;;;;4.73;2.03;;;;;;;;;;20997861;28;20045;-67
2022/06/26 05:35:26;;;;;;;4.75;1.90;;;;;;;;;;20996901;28;20104;-67
2022/06/26 05:45:28;;;;;;;3.67;1.80;;;;;;;;;;20995883;28;20052;-62
2022/06/26 05:55:33;;;;;;;4.00;1.87;;;;;;;;;;20995963;28;20049;-70
2022/06/26 06:05:35;;;;;;;3.92;2.08;;;;;;;;;;20994393;28;20070;-67
2022/06/26 06:15:37;;;;;;;3.80;1.83;;;;;;;;;;20994368;28;20052;-65
2022/06/26 06:25:39;;;;;;;6.18;2.70;;;;;;;;;;20994292;28;20049;-67
2022/06/26 06:35:42;;;;;;;5.75;2.38;;;;;;;;;;20993714;28;20060;-63
2022/06/26 06:45:45;;;;;;;5.05;2.45;;;;;;;;;;20994657;28;20045;-68
2022/06/26 06:55:47;;;;;;;5.45;2.90;;;;;;;;;;20995017;28;20509;-65
2022/06/26 07:05:50;;;;;;;18.30;4.40;;;;;;;;;;20993437;28;20071;-64
2022/06/26 07:15:53;;;;;;;5.78;3.35;;;;;;;;;;20992675;28;20049;-66
2022/06/26 07:25:56;;;;;;;4.57;1.63;;;;;;;;;;20991776;28;20056;-67
2022/06/26 07:35:58;;;;;;;3.28;1.50;;;;;;;;;;21007445;28;20052;-67
2022/06/26 07:46:01;;;;;;;4.47;1.83;;;;;;;;;;21006698;28;20052;-70
2022/06/26 07:56:03;;;;;;;2.40;1.50;;;;;;;;;;21006081;28;20309;-66
2022/06/26 08:06:07;;;;;;;3.95;1.75;;;;;;;;;;21004544;28;20293;-64
2022/06/26 08:16:09;;;;;;;;;;;;;;;;;;21003381;28;20056;-63
2022/06/26 08:26:11;;;;;;;5.05;1.90;;;;;;;;;;21003395;28;19927;-65
2022/06/26 08:36:14;;;;;;;7.68;1.77;;;;;;;;;;21002907;28;20044;-65
2022/06/26 08:46:17;;;;;;;2.85;1.60;;;;;;;;;;21014496;28;20072;-67
2022/06/26 08:56:19;;;;;;;3.63;1.98;;;;;;;;;;21000329;28;20056;-69
2022/06/26 09:06:21;;;;;;;5.07;1.58;;;;;;;;;;20999206;28;20041;-60
2022/06/26 09:16:35;;;;;;;3.63;1.70;;;;;;;;;;20997496;28;20051;-62
2022/06/26 09:26:38;;;;;;;4.30;2.00;;;;;;;;;;20997475;28;20492;-64
2022/06/26 09:36:40;;;;;;;5.00;2.35;;;;;;;;;;20996257;28;20048;-66
2022/06/26 09:46:43;;;;;;;;;;;;;;;;;;20997827;28;20118;-63
2022/06/26 09:56:46;;;;;;;5.63;2.08;;;;;;;;;;20998242;28;19927;-61
2022/06/26 10:06:49;;;;;;;3.40;1.90;;;;;;;;;;20995674;28;20094;-60
2022/06/26 10:17:17;;;;;;;5.32;2.03;;;;;;;;;;21056497;28;20044;-66
2022/06/26 10:27:32;;;;;;;4.40;2.03;;;;;;;;;;21077406;28;20119;-60
2022/06/26 10:37:41;;;;;;;2.95;1.70;;;;;;;;;;21077039;28;20135;-62
2022/06/26 10:47:44;;;;;;;6.72;1.95;;;;;;;;;;21075371;28;20131;-65
2022/06/26 10:57:49;;;;;;;4.85;2.03;;;;;;;;;;21077254;28;20060;-72
2022/06/26 11:07:53;;;;;;;5.45;2.13;;;;;;;;;;21088341;28;20044;-71
2022/06/26 11:18:05;;;;;;;5.93;3.40;;;;;;;;;;21090360;28;20071;-70
2022/06/26 11:28:09;;;;;;;4.75;2.40;;;;;;;;;;21089484;28;20155;-62
2022/06/26 11:38:15;;;;;;;5.05;1.75;;;;;;;;;;21089708;28;20059;-70
2022/06/26 11:48:17;;;;;;;5.55;2.33;;;;;;;;;;21088145;28;20056;-68
2022/06/26 11:58:21;;;;;;;4.72;2.03;;;;;;;;;;21089723;28;20075;-67
2022/06/26 12:08:23;;;;;;;5.53;2.95;;;;;;;;;;21087512;28;20126;-69
2022/06/26 12:18:27;;;;;;;4.78;2.58;;;;;;;;;;21089311;28;20480;-69
2022/06/26 12:28:28;;;;;;;3.95;2.80;;;;;;;;;;21089921;28;20131;-65
2022/06/26 12:38:34;;;;;;;2.90;1.77;;;;;;;;;;21086095;28;20048;-66
2022/06/26 12:48:39;;;;;;;3.22;1.50;;;;;;;;;;21085017;28;20123;-73
2022/06/26 12:58:41;;;;;;;4.22;2.20;;;;;;;;;;21083402;28;20044;-71
2022/06/26 13:08:46;;;;;;;3.13;1.50;;;;;;;;;;21084821;28;20036;-72
2022/06/26 13:18:48;;;;;;;2.47;1.48;;;;;;;;;;21082683;28;20483;-70
2022/06/26 13:28:51;;;;;;;2.10;1.05;;;;;;;;;;21080859;28;20146;-72
2022/06/26 13:38:55;;;;;;;1.90;1.13;;;;;;;;;;21079471;28;20063;-63
2022/06/26 13:48:59;;;;;;;4.82;2.25;;;;;;;;;;21079515;28;20044;-62
2022/06/26 13:59:01;;;;;;;2.47;1.67;;;;;;;;;;21079946;28;20056;-63
2022/06/26 14:09:03;;;;;;;3.35;2.22;;;;;;;;;;21061824;28;20048;-61
2022/06/26 14:19:05;;;;;;;2.65;1.20;;;;;;;;;;21077404;28;20127;-72
2022/06/26 14:29:07;;;;;;;2.67;1.55;;;;;;;;;;21077552;28;20048;-73
2022/06/26 14:39:09;;;;;;;2.53;1.30;;;;;;;;;;21084044;28;20070;-72
2022/06/26 14:49:11;;;;;;;3.28;1.05;;;;;;;;;;21093947;28;20575;-71
2022/06/26 14:59:13;;;;;;;3.22;1.10;;;;;;;;;;21100841;28;20483;-68
2022/06/26 15:09:15;;;;;;;2.45;1.30;;;;;;;;;;21131439;28;20060;-67
2022/06/26 15:19:17;;;;;;;1.80;1.00;;;;;;;;;;21097531;28;20078;-70
2022/06/26 15:29:20;;;;;;;3.00;1.20;;;;;;;;;;21093832;28;20055;-73
2022/06/26 15:39:22;;;;;;;2.42;1.52;;;;;;;;;;21090995;28;20044;-71
2022/06/26 15:49:25;;;;;;;2.72;1.38;;;;;;;;;;21089613;28;20083;-69
2022/06/26 15:59:26;;;;;;;2.25;1.55;;;;;;;;;;21089377;28;20051;-60
2022/06/26 16:09:28;;;;;;;2.63;1.20;;;;;;;;;;21087896;28;20079;-66
2022/06/26 16:19:30;;;;;;;4.07;1.25;;;;;;;;;;21084844;28;20044;-65
2022/06/26 16:29:31;;;;;;;3.53;1.50;;;;;;;;;;21085728;28;20071;-70
2022/06/26 16:39:33;;;;;;;8.88;4.30;;;;;;;;;;21084807;28;20127;-66
2022/06/26 16:49:35;;;;;;;4.05;2.50;;;;;;;;;;21084949;28;20048;-59
2022/06/26 16:59:37;;;;;;;4.25;1.50;;;;;;;;;;21082954;28;20044;-62
2022/06/26 17:09:39;;;;;;;2.30;1.73;;;;;;;;;;21081590;28;20052;-61
2022/06/26 17:19:40;;;;;;;3.85;1.60;;;;;;;;;;21083737;28;20073;-62
2022/06/26 17:29:42;;;;;;;3.88;1.50;;;;;;;;;;21084485;28;20048;-70
2022/06/26 17:39:44;;;;;;;3.67;1.67;;;;;;;;;;21084904;28;20048;-72
2022/06/26 17:49:45;;;;;;;2.72;1.63;;;;;;;;;;21080032;28;20095;-65
2022/06/26 17:59:47;;;;;;;3.47;1.52;;;;;;;;;;21076985;28;20052;-70
2022/06/26 18:09:49;;;;;;;2.85;1.88;;;;;;;;;;21077770;28;20483;-62
2022/06/26 18:19:51;;;;;;;4.40;2.25;;;;;;;;;;21078777;28;20044;-62
2022/06/26 18:29:53;;;;;;;3.80;2.22;;;;;;;;;;21077361;28;20056;-71
2022/06/26 18:39:54;;;;;;;7.75;3.83;;;;;;;;;;21077867;28;20044;-66
2022/06/26 18:49:56;;;;;;;8.27;7.13;;;;;;;;;;21076899;28;20052;-63
2022/06/26 18:59:58;;;;;;;7.53;2.63;;;;;;;;;;21076248;28;20052;-62
2022/06/26 19:09:59;;;;;;;;;;;;;;;;;;21076560;28;20059;-72
2022/06/26 19:20:01;;;;;;;6.47;2.97;;;;;;;;;;21075985;28;19919;-64
2022/06/26 19:30:03;;;;;;;5.43;2.00;;;;;;;;;;21089458;28;20416;-72
2022/06/26 19:40:06;;;;;;;5.80;2.08;;;;;;;;;;21092773;28;20476;-65
2022/06/26 20:00:30;;;;;;;3.77;1.70;;;;;;;;;;21088285;28;20076;-61
2022/06/26 20:10:33;;;;;;;6.10;3.65;;;;;;;;;;21086718;28;20056;-62
2022/06/26 20:20:35;;;;;;;4.88;2.50;;;;;;;;;;21088087;28;20135;-59
2022/06/26 20:30:36;;;;;;;;;;;;;;;;;;21086619;28;20411;-68
2022/06/26 20:40:40;;;;;;;8.18;2.60;;;;;;;;;;21085248;28;19920;-60
2022/06/26 20:50:42;;;;;;;6.28;2.90;;;;;;;;;;21084925;28;20412;-68
2022/06/26 21:00:44;;;;;;;4.97;2.05;;;;;;;;;;21084453;28;20040;-62
2022/06/26 21:10:47;;;;;;;5.40;1.83;;;;;;;;;;21084361;28;20400;-61
2022/06/26 21:20:49;;;;;;;5.13;2.35;;;;;;;;;;21083889;28;20052;-58
2022/06/26 21:30:54;;;;;;;4.18;1.88;;;;;;;;;;21083786;28;20067;-64
2022/06/26 21:40:57;;;;;;;6.15;2.63;;;;;;;;;;21082840;28;20044;-58
2022/06/26 21:51:00;;;;;;;4.22;1.83;;;;;;;;;;21079680;28;20503;-64
2022/06/26 22:01:02;;;;;;;4.68;1.75;;;;;;;;;;21079464;28;20040;-68
2022/06/26 22:11:04;;;;;;;4.20;2.38;;;;;;;;;;21078210;28;20079;-67
2022/06/26 22:21:06;;;;;;;4.75;1.95;;;;;;;;;;21078078;28;20040;-57
2022/06/26 22:31:07;;;;;;;4.50;2.03;;;;;;;;;;21077367;28;20063;-60
2022/06/26 22:41:09;;;;;;;2.93;1.87;;;;;;;;;;21077178;28;20047;-56
2022/06/26 22:51:11;;;;;;;4.10;1.90;;;;;;;;;;21076644;28;20086;-69
2022/06/26 23:01:13;;;;;;;4.40;2.00;;;;;;;;;;21084847;28;20044;-71
2022/06/26 23:11:15;;;;;;;2.50;1.80;;;;;;;;;;21093108;28;20552;-61
2022/06/26 23:21:16;;;;;;;5.17;1.70;;;;;;;;;;21091819;28;20503;-57
2022/06/26 23:31:18;;;;;;;5.03;1.53;;;;;;;;;;21090876;28;20105;-64
2022/06/26 23:41:20;;;;;;;2.50;1.70;;;;;;;;;;21090200;28;20040;-58
2022/06/26 23:51:22;;;;;;;4.43;2.40;;;;;;;;;;21090329;28;20055;-55
